EWG03K EDDL-EDDH
Flight info
| Callsign | EWG03K |
|---|---|
| Flight time | 0h 41m |
| Altitude | 24000 |
| Route | MEVEL4T MEVEL DCT EVDAL DCT BASUM DCT RIBSO RIBSO3P |
| Aircraft | A320/M-SDE3FGHIRWY/LB1 |
Departure
| Time | 2026-05-04 18:19 |
|---|---|
| Airport | Düsseldorf Airport (EDDL) |
Arrival
| Time | 2026-05-04 19:00 |
|---|---|
| Airport | Hamburg Helmut Schmidt Airport (EDDH) |
| Time | Latitude | Longitude | Altitude | Speed | Heading |
|---|---|---|---|---|---|
| 2026-05-04 16:52 | 51.28208 | 6.76732 | 124 ft | 0 kts | 278° |
| 2026-05-04 18:07 | 51.28207 | 6.76744 | 121 ft | 2 kts | 278° |
| 2026-05-04 18:07 | 51.28205 | 6.76769 | 126 ft | 2 kts | 282° |
| 2026-05-04 18:08 | 51.28205 | 6.76790 | 122 ft | 0 kts | 232° |
| 2026-05-04 18:08 | 51.28214 | 6.76809 | 122 ft | 2 kts | 233° |
| 2026-05-04 18:08 | 51.28221 | 6.76825 | 124 ft | 0 kts | 262° |
| 2026-05-04 18:08 | 51.28225 | 6.76846 | 124 ft | 2 kts | 217° |
| 2026-05-04 18:09 | 51.28258 | 6.76854 | 124 ft | 2 kts | 179° |
| 2026-05-04 18:09 | 51.28291 | 6.76860 | 126 ft | 2 kts | 193° |
| 2026-05-04 18:10 | 51.28308 | 6.76866 | 126 ft | 2 kts | 195° |
| 2026-05-04 18:10 | 51.28321 | 6.76881 | 124 ft | 2 kts | 235° |
| 2026-05-04 18:10 | 51.28331 | 6.76903 | 125 ft | 2 kts | 230° |
| 2026-05-04 18:10 | 51.28341 | 6.76923 | 122 ft | 2 kts | 230° |
| 2026-05-04 18:11 | 51.28352 | 6.76944 | 123 ft | 2 kts | 230° |
| 2026-05-04 18:11 | 51.28355 | 6.76950 | 124 ft | 0 kts | 230° |
| 2026-05-04 18:12 | 51.28352 | 6.76943 | 123 ft | 5 kts | 230° |
| 2026-05-04 18:12 | 51.28334 | 6.76807 | 123 ft | 21 kts | 276° |
| 2026-05-04 18:13 | 51.28381 | 6.76699 | 127 ft | 0 kts | 333° |
| 2026-05-04 18:13 | 51.28386 | 6.76696 | 123 ft | 4 kts | 337° |
| 2026-05-04 18:13 | 51.28539 | 6.76879 | 128 ft | 23 kts | 53° |
| 2026-05-04 18:14 | 51.28634 | 6.77082 | 133 ft | 23 kts | 52° |
| 2026-05-04 18:14 | 51.28738 | 6.77298 | 131 ft | 25 kts | 52° |
| 2026-05-04 18:14 | 51.28850 | 6.77534 | 123 ft | 28 kts | 53° |
| 2026-05-04 18:15 | 51.29067 | 6.77988 | 134 ft | 19 kts | 51° |
| 2026-05-04 18:15 | 51.29134 | 6.78128 | 134 ft | 4 kts | 53° |
| 2026-05-04 18:15 | 51.29161 | 6.78185 | 135 ft | 9 kts | 53° |
| 2026-05-04 18:16 | 51.29211 | 6.78293 | 134 ft | 16 kts | 53° |
| 2026-05-04 18:16 | 51.29228 | 6.78328 | 133 ft | 5 kts | 53° |
| 2026-05-04 18:16 | 51.29306 | 6.78487 | 134 ft | 22 kts | 52° |
| 2026-05-04 18:17 | 51.29511 | 6.78524 | 135 ft | 8 kts | 317° |
| 2026-05-04 18:17 | 51.29503 | 6.78444 | 133 ft | 9 kts | 240° |
| 2026-05-04 18:17 | 51.29442 | 6.78306 | 133 ft | 6 kts | 233° |
| 2026-05-04 18:18 | 51.29400 | 6.78216 | 132 ft | 29 kts | 233° |
| 2026-05-04 18:18 | 51.29110 | 6.77612 | 125 ft | 103 kts | 232° |
| 2026-05-04 18:18 | 51.28547 | 6.76444 | 127 ft | 158 kts | 231° |
| 2026-05-04 18:18 | 51.27889 | 6.74925 | 543 ft | 174 kts | 233° |
| 2026-05-04 18:19 | 51.26490 | 6.71316 | 1594 ft | 213 kts | 252° |
| 2026-05-04 18:19 | 51.26618 | 6.68907 | 2158 ft | 235 kts | 295° |
| 2026-05-04 18:19 | 51.27793 | 6.66966 | 2795 ft | 258 kts | 333° |
| 2026-05-04 18:20 | 51.29606 | 6.66435 | 3416 ft | 278 kts | 5° |
| 2026-05-04 18:20 | 51.31577 | 6.67006 | 4036 ft | 296 kts | 14° |
| 2026-05-04 18:20 | 51.33613 | 6.67828 | 4672 ft | 305 kts | 14° |
| 2026-05-04 18:20 | 51.35690 | 6.68673 | 5213 ft | 310 kts | 14° |
| 2026-05-04 18:21 | 51.37768 | 6.69497 | 5737 ft | 311 kts | 11° |
| 2026-05-04 18:21 | 51.39921 | 6.69965 | 6282 ft | 313 kts | 4° |
| 2026-05-04 18:21 | 51.42115 | 6.70039 | 6825 ft | 316 kts | 359° |
| 2026-05-04 18:21 | 51.44316 | 6.69940 | 7373 ft | 319 kts | 358° |
| 2026-05-04 18:22 | 51.46582 | 6.69799 | 7932 ft | 328 kts | 358° |
| 2026-05-04 18:22 | 51.48881 | 6.69685 | 8496 ft | 331 kts | 359° |
| 2026-05-04 18:22 | 51.51162 | 6.69619 | 9068 ft | 332 kts | 360° |
| 2026-05-04 18:22 | 51.53481 | 6.69591 | 9643 ft | 334 kts | 1° |
| 2026-05-04 18:23 | 51.55810 | 6.69588 | 10205 ft | 335 kts | 0° |
| 2026-05-04 18:23 | 51.58154 | 6.69693 | 10732 ft | 338 kts | 8° |
| 2026-05-04 18:23 | 51.60451 | 6.70572 | 11278 ft | 340 kts | 21° |
| 2026-05-04 18:23 | 51.62535 | 6.72297 | 11819 ft | 342 kts | 34° |
| 2026-05-04 18:24 | 51.64335 | 6.74810 | 12412 ft | 346 kts | 48° |
| 2026-05-04 18:24 | 51.65814 | 6.77892 | 12989 ft | 347 kts | 54° |
| 2026-05-04 18:24 | 51.67270 | 6.81075 | 13580 ft | 354 kts | 54° |
| 2026-05-04 18:24 | 51.68658 | 6.84103 | 14098 ft | 358 kts | 54° |
| 2026-05-04 18:25 | 51.70135 | 6.87321 | 14632 ft | 363 kts | 54° |
| 2026-05-04 18:25 | 51.71650 | 6.90621 | 15182 ft | 366 kts | 54° |
| 2026-05-04 18:25 | 51.73172 | 6.93935 | 15723 ft | 370 kts | 54° |
| 2026-05-04 18:25 | 51.74711 | 6.97287 | 16281 ft | 373 kts | 54° |
| 2026-05-04 18:26 | 51.76252 | 7.00649 | 16847 ft | 377 kts | 55° |
| 2026-05-04 18:26 | 51.77817 | 7.04073 | 17427 ft | 381 kts | 55° |
| 2026-05-04 18:26 | 51.79398 | 7.07540 | 18014 ft | 385 kts | 55° |
| 2026-05-04 18:26 | 51.81001 | 7.11068 | 18566 ft | 389 kts | 55° |
| 2026-05-04 18:27 | 51.82612 | 7.14623 | 19087 ft | 394 kts | 55° |
| 2026-05-04 18:27 | 51.84221 | 7.18179 | 19616 ft | 397 kts | 55° |
| 2026-05-04 18:27 | 51.85933 | 7.21719 | 20157 ft | 402 kts | 48° |
| 2026-05-04 18:27 | 51.87886 | 7.25016 | 20718 ft | 405 kts | 47° |
| 2026-05-04 18:28 | 51.89851 | 7.28320 | 21274 ft | 408 kts | 47° |
| 2026-05-04 18:28 | 51.91802 | 7.31609 | 21843 ft | 410 kts | 47° |
| 2026-05-04 18:28 | 51.93783 | 7.34962 | 22410 ft | 412 kts | 47° |
| 2026-05-04 18:28 | 51.95768 | 7.38329 | 23005 ft | 414 kts | 47° |
| 2026-05-04 18:29 | 51.97762 | 7.41717 | 23596 ft | 416 kts | 47° |
| 2026-05-04 18:29 | 51.99773 | 7.45136 | 23886 ft | 425 kts | 47° |
| 2026-05-04 18:29 | 52.01859 | 7.48683 | 23975 ft | 439 kts | 47° |
| 2026-05-04 18:29 | 52.03981 | 7.52289 | 23979 ft | 454 kts | 47° |
| 2026-05-04 18:30 | 52.08430 | 7.59872 | 23973 ft | 466 kts | 47° |
| 2026-05-04 18:30 | 52.10663 | 7.63692 | 23972 ft | 466 kts | 47° |
| 2026-05-04 18:30 | 52.12908 | 7.67515 | 23973 ft | 466 kts | 47° |
| 2026-05-04 18:31 | 52.15133 | 7.71288 | 23975 ft | 466 kts | 46° |
| 2026-05-04 18:31 | 52.17383 | 7.75098 | 23973 ft | 466 kts | 46° |
| 2026-05-04 18:31 | 52.19648 | 7.78886 | 23972 ft | 466 kts | 43° |
| 2026-05-04 18:31 | 52.22249 | 7.82006 | 23972 ft | 466 kts | 30° |
| 2026-05-04 18:32 | 52.25076 | 7.84625 | 23969 ft | 466 kts | 29° |
| 2026-05-04 18:32 | 52.27905 | 7.87227 | 23983 ft | 466 kts | 29° |
| 2026-05-04 18:32 | 52.30744 | 7.89833 | 23986 ft | 466 kts | 29° |
| 2026-05-04 18:32 | 52.33534 | 7.92393 | 23991 ft | 465 kts | 29° |
| 2026-05-04 18:33 | 52.36363 | 7.94989 | 23982 ft | 465 kts | 29° |
| 2026-05-04 18:33 | 52.39182 | 7.97581 | 23966 ft | 465 kts | 28° |
| 2026-05-04 18:33 | 52.41066 | 7.99321 | 23975 ft | 465 kts | 28° |
| 2026-05-04 18:33 | 52.44807 | 8.02789 | 23955 ft | 465 kts | 28° |
| 2026-05-04 18:34 | 52.46713 | 8.04558 | 23951 ft | 465 kts | 28° |
| 2026-05-04 18:34 | 52.49513 | 8.07157 | 23989 ft | 466 kts | 28° |
| 2026-05-04 18:34 | 52.52332 | 8.09777 | 23971 ft | 466 kts | 28° |
| 2026-05-04 18:34 | 52.55149 | 8.12398 | 23971 ft | 466 kts | 28° |
| 2026-05-04 18:35 | 52.57818 | 8.14887 | 23969 ft | 465 kts | 28° |
| 2026-05-04 18:35 | 52.60631 | 8.17514 | 23970 ft | 465 kts | 28° |
| 2026-05-04 18:35 | 52.63458 | 8.20156 | 23969 ft | 465 kts | 28° |
| 2026-05-04 18:35 | 52.66278 | 8.22797 | 23967 ft | 465 kts | 29° |
| 2026-05-04 18:36 | 52.69040 | 8.25554 | 23961 ft | 465 kts | 36° |
| 2026-05-04 18:36 | 52.71372 | 8.29172 | 23961 ft | 464 kts | 50° |
| 2026-05-04 18:36 | 52.73446 | 8.33274 | 23967 ft | 464 kts | 51° |
| 2026-05-04 18:36 | 52.75492 | 8.37370 | 23966 ft | 464 kts | 51° |
| 2026-05-04 18:37 | 52.77532 | 8.41480 | 23965 ft | 464 kts | 51° |
| 2026-05-04 18:37 | 52.79581 | 8.45618 | 23967 ft | 464 kts | 51° |
| 2026-05-04 18:37 | 52.81625 | 8.49753 | 23966 ft | 464 kts | 51° |
| 2026-05-04 18:37 | 52.83681 | 8.53914 | 23969 ft | 465 kts | 51° |
| 2026-05-04 18:38 | 52.85727 | 8.58057 | 23850 ft | 463 kts | 51° |
| 2026-05-04 18:38 | 52.87724 | 8.62105 | 23469 ft | 453 kts | 51° |
| 2026-05-04 18:38 | 52.89701 | 8.66114 | 23062 ft | 443 kts | 51° |
| 2026-05-04 18:38 | 52.91627 | 8.70023 | 22659 ft | 434 kts | 51° |
| 2026-05-04 18:39 | 52.93523 | 8.73879 | 22266 ft | 426 kts | 51° |
| 2026-05-04 18:39 | 52.95376 | 8.77656 | 21871 ft | 418 kts | 50° |
| 2026-05-04 18:39 | 52.97177 | 8.81334 | 21486 ft | 412 kts | 50° |
| 2026-05-04 18:39 | 52.98971 | 8.85003 | 21099 ft | 407 kts | 50° |
| 2026-05-04 18:40 | 53.00751 | 8.88648 | 20710 ft | 403 kts | 50° |
| 2026-05-04 18:40 | 53.02517 | 8.92268 | 20333 ft | 400 kts | 50° |
| 2026-05-04 18:40 | 53.04246 | 8.95823 | 19963 ft | 398 kts | 50° |
| 2026-05-04 18:40 | 53.05973 | 8.99384 | 19594 ft | 395 kts | 50° |
| 2026-05-04 18:41 | 53.07696 | 9.02939 | 19221 ft | 391 kts | 50° |
| 2026-05-04 18:41 | 53.09396 | 9.06449 | 18862 ft | 386 kts | 50° |
| 2026-05-04 18:41 | 53.11070 | 9.09907 | 18503 ft | 381 kts | 49° |
| 2026-05-04 18:41 | 53.12725 | 9.13326 | 18131 ft | 377 kts | 49° |
| 2026-05-04 18:42 | 53.14363 | 9.16719 | 17732 ft | 373 kts | 50° |
| 2026-05-04 18:42 | 53.15959 | 9.20026 | 17338 ft | 369 kts | 50° |
| 2026-05-04 18:42 | 53.17563 | 9.23350 | 16927 ft | 365 kts | 49° |
| 2026-05-04 18:42 | 53.19153 | 9.26650 | 16548 ft | 361 kts | 50° |
| 2026-05-04 18:43 | 53.20700 | 9.29865 | 16165 ft | 358 kts | 50° |
| 2026-05-04 18:43 | 53.22259 | 9.33114 | 15755 ft | 356 kts | 50° |
| 2026-05-04 18:43 | 53.23810 | 9.36353 | 15353 ft | 354 kts | 50° |
| 2026-05-04 18:43 | 53.25332 | 9.39535 | 14949 ft | 352 kts | 50° |
| 2026-05-04 18:44 | 53.26837 | 9.42688 | 14534 ft | 341 kts | 50° |
| 2026-05-04 18:44 | 53.27824 | 9.44759 | 14273 ft | 332 kts | 50° |
| 2026-05-04 18:44 | 53.29689 | 9.48676 | 13800 ft | 318 kts | 51° |
| 2026-05-04 18:44 | 53.31059 | 9.51550 | 13401 ft | 311 kts | 51° |
| 2026-05-04 18:45 | 53.32381 | 9.54325 | 13013 ft | 308 kts | 51° |
| 2026-05-04 18:45 | 53.33711 | 9.57118 | 12614 ft | 305 kts | 51° |
| 2026-05-04 18:45 | 53.35030 | 9.59893 | 12166 ft | 302 kts | 51° |
| 2026-05-04 18:45 | 53.36334 | 9.62644 | 11762 ft | 300 kts | 50° |
| 2026-05-04 18:46 | 53.37614 | 9.65351 | 11361 ft | 292 kts | 51° |
| 2026-05-04 18:46 | 53.38858 | 9.67983 | 10964 ft | 284 kts | 51° |
| 2026-05-04 18:46 | 53.40059 | 9.70523 | 10577 ft | 278 kts | 51° |
| 2026-05-04 18:46 | 53.41250 | 9.73046 | 10182 ft | 273 kts | 51° |
| 2026-05-04 18:47 | 53.42420 | 9.75532 | 9796 ft | 271 kts | 51° |
| 2026-05-04 18:47 | 53.43586 | 9.78006 | 9355 ft | 268 kts | 51° |
| 2026-05-04 18:47 | 53.44748 | 9.80470 | 8978 ft | 269 kts | 51° |
| 2026-05-04 18:47 | 53.45904 | 9.82921 | 8559 ft | 271 kts | 51° |
| 2026-05-04 18:48 | 53.47079 | 9.85420 | 8161 ft | 272 kts | 51° |
| 2026-05-04 18:48 | 53.48246 | 9.87905 | 7848 ft | 269 kts | 51° |
| 2026-05-04 18:48 | 53.49397 | 9.90363 | 7553 ft | 266 kts | 51° |
| 2026-05-04 18:48 | 53.50539 | 9.92804 | 7243 ft | 263 kts | 51° |
| 2026-05-04 18:49 | 53.51644 | 9.95171 | 6963 ft | 260 kts | 51° |
| 2026-05-04 18:49 | 53.52748 | 9.97538 | 6670 ft | 257 kts | 51° |
| 2026-05-04 18:49 | 53.53847 | 9.99895 | 6350 ft | 254 kts | 51° |
| 2026-05-04 18:49 | 53.54931 | 10.02216 | 6041 ft | 252 kts | 51° |
| 2026-05-04 18:50 | 53.56010 | 10.04526 | 5720 ft | 250 kts | 51° |
| 2026-05-04 18:50 | 53.57081 | 10.06827 | 5420 ft | 248 kts | 51° |
| 2026-05-04 18:50 | 53.58149 | 10.09122 | 5120 ft | 250 kts | 50° |
| 2026-05-04 18:50 | 53.59217 | 10.11420 | 4856 ft | 248 kts | 50° |
| 2026-05-04 18:51 | 53.60280 | 10.13707 | 4500 ft | 248 kts | 50° |
| 2026-05-04 18:51 | 53.61323 | 10.15955 | 4244 ft | 244 kts | 50° |
| 2026-05-04 18:51 | 53.62364 | 10.18201 | 3935 ft | 242 kts | 50° |
| 2026-05-04 18:51 | 53.63397 | 10.20428 | 3625 ft | 241 kts | 50° |
| 2026-05-04 18:52 | 53.64424 | 10.22644 | 3363 ft | 237 kts | 51° |
| 2026-05-04 18:52 | 53.65415 | 10.24794 | 3255 ft | 227 kts | 50° |
| 2026-05-04 18:52 | 53.66358 | 10.26841 | 3164 ft | 222 kts | 50° |
| 2026-05-04 18:52 | 53.67307 | 10.28901 | 3063 ft | 220 kts | 50° |
| 2026-05-04 18:53 | 53.68242 | 10.30931 | 2995 ft | 218 kts | 50° |
| 2026-05-04 18:53 | 53.69341 | 10.32597 | 3008 ft | 213 kts | 21° |
| 2026-05-04 18:53 | 53.70758 | 10.32967 | 3012 ft | 207 kts | 351° |
| 2026-05-04 18:53 | 53.72184 | 10.32572 | 3013 ft | 207 kts | 345° |
| 2026-05-04 18:54 | 53.73593 | 10.32058 | 3009 ft | 206 kts | 345° |
| 2026-05-04 18:54 | 53.74964 | 10.31457 | 3006 ft | 205 kts | 333° |
| 2026-05-04 18:54 | 53.76032 | 10.29987 | 3015 ft | 195 kts | 301° |
| 2026-05-04 18:54 | 53.76463 | 10.27883 | 3024 ft | 190 kts | 272° |
| 2026-05-04 18:55 | 53.76186 | 10.25733 | 3012 ft | 190 kts | 242° |
| 2026-05-04 18:55 | 53.74531 | 10.22222 | 3005 ft | 191 kts | 232° |
| 2026-05-04 18:55 | 53.73725 | 10.20583 | 2993 ft | 168 kts | 232° |
| 2026-05-04 18:56 | 53.73016 | 10.19136 | 2884 ft | 157 kts | 232° |
| 2026-05-04 18:56 | 53.72331 | 10.17735 | 2719 ft | 153 kts | 232° |
| 2026-05-04 18:56 | 53.71668 | 10.16382 | 2530 ft | 146 kts | 232° |
| 2026-05-04 18:56 | 53.71025 | 10.15070 | 2344 ft | 143 kts | 233° |
| 2026-05-04 18:57 | 53.70396 | 10.13787 | 2202 ft | 140 kts | 233° |
| 2026-05-04 18:57 | 53.69788 | 10.12547 | 2010 ft | 139 kts | 233° |
| 2026-05-04 18:57 | 53.69167 | 10.11283 | 1815 ft | 140 kts | 233° |
| 2026-05-04 18:57 | 53.68542 | 10.10010 | 1625 ft | 141 kts | 233° |
| 2026-05-04 18:58 | 53.67917 | 10.08738 | 1433 ft | 141 kts | 234° |
| 2026-05-04 18:58 | 53.67287 | 10.07457 | 1231 ft | 142 kts | 233° |
| 2026-05-04 18:58 | 53.66666 | 10.06194 | 1042 ft | 141 kts | 233° |
| 2026-05-04 18:58 | 53.66040 | 10.04922 | 850 ft | 140 kts | 233° |
| 2026-05-04 18:59 | 53.65420 | 10.03663 | 654 ft | 139 kts | 234° |
| 2026-05-04 18:59 | 53.64799 | 10.02410 | 464 ft | 139 kts | 235° |
| 2026-05-04 18:59 | 53.64189 | 10.01163 | 295 ft | 138 kts | 234° |
| 2026-05-04 18:59 | 53.63572 | 9.99910 | 82 ft | 137 kts | 232° |
| 2026-05-04 19:00 | 53.63027 | 9.98798 | 49 ft | 101 kts | 230° |
| 2026-05-04 19:00 | 53.62703 | 9.98145 | 50 ft | 51 kts | 229° |
| 2026-05-04 19:00 | 53.62552 | 9.97845 | 48 ft | 27 kts | 230° |
| 2026-05-04 19:00 | 53.62447 | 9.97827 | 47 ft | 15 kts | 137° |
| 2026-05-04 19:01 | 53.62434 | 9.97970 | 50 ft | 12 kts | 75° |
| 2026-05-04 19:01 | 53.62469 | 9.98096 | 50 ft | 14 kts | 59° |
| 2026-05-04 19:01 | 53.62525 | 9.98215 | 50 ft | 12 kts | 50° |
| 2026-05-04 19:01 | 53.62575 | 9.98317 | 51 ft | 11 kts | 51° |
| 2026-05-04 19:02 | 53.62638 | 9.98446 | 51 ft | 18 kts | 50° |
| 2026-05-04 19:02 | 53.62736 | 9.98645 | 50 ft | 26 kts | 50° |
| 2026-05-04 19:02 | 53.62867 | 9.98906 | 50 ft | 31 kts | 50° |
| 2026-05-04 19:02 | 53.62990 | 9.99158 | 50 ft | 7 kts | 50° |
| 2026-05-04 19:03 | 53.62995 | 9.99168 | 50 ft | 0 kts | 50° |
| 2026-05-04 19:03 | 53.63014 | 9.99206 | 50 ft | 10 kts | 50° |
| 2026-05-04 19:04 | 53.63081 | 9.99356 | 50 ft | 22 kts | 56° |
| 2026-05-04 19:04 | 53.63163 | 9.99551 | 49 ft | 20 kts | 49° |
| 2026-05-04 19:04 | 53.63260 | 9.99731 | 50 ft | 22 kts | 45° |
| 2026-05-04 19:04 | 53.63362 | 9.99933 | 50 ft | 23 kts | 50° |
| 2026-05-04 19:05 | 53.63444 | 10.00090 | 51 ft | 14 kts | 50° |
| 2026-05-04 19:05 | 53.63466 | 10.00173 | 51 ft | 6 kts | 102° |
| 2026-05-04 19:05 | 53.63437 | 10.00214 | 51 ft | 5 kts | 156° |
| 2026-05-04 19:05 | 53.63402 | 10.00224 | 51 ft | 5 kts | 173° |
| 2026-05-04 19:06 | 53.63370 | 10.00230 | 51 ft | 4 kts | 174° |
| 2026-05-04 19:06 | 53.63343 | 10.00245 | 50 ft | 4 kts | 146° |
| 2026-05-04 19:06 | 53.63333 | 10.00278 | 51 ft | 3 kts | 105° |
| 2026-05-04 19:06 | 53.63332 | 10.00331 | 51 ft | 5 kts | 85° |
| 2026-05-04 19:07 | 53.63333 | 10.00348 | 51 ft | 0 kts | 85° |